sensor_id;sensor_type;location;lat;lon;timestamp;pressure;altitude;pressure_sealevel;temperature
9119;BMP180;4594;50.994;7.126;2024-01-16T00:01:17;99877.00;;;7.70
9119;BMP180;4594;50.994;7.126;2024-01-16T00:03:43;99864.00;;;7.70
9119;BMP180;4594;50.994;7.126;2024-01-16T00:06:10;99863.00;;;7.70
9119;BMP180;4594;50.994;7.126;2024-01-16T00:08:36;99883.00;;;7.70
9119;BMP180;4594;50.994;7.126;2024-01-16T00:11:02;99878.00;;;7.70
9119;BMP180;4594;50.994;7.126;2024-01-16T00:13:28;99887.00;;;7.70
9119;BMP180;4594;50.994;7.126;2024-01-16T00:15:54;99859.00;;;7.70
9119;BMP180;4594;50.994;7.126;2024-01-16T00:18:22;99876.00;;;7.60
9119;BMP180;4594;50.994;7.126;2024-01-16T00:20:48;99861.00;;;7.60
9119;BMP180;4594;50.994;7.126;2024-01-16T00:23:14;99867.00;;;7.60
9119;BMP180;4594;50.994;7.126;2024-01-16T00:25:40;99852.00;;;7.60
9119;BMP180;4594;50.994;7.126;2024-01-16T00:28:06;99847.00;;;7.60
9119;BMP180;4594;50.994;7.126;2024-01-16T00:30:32;99866.00;;;7.60
9119;BMP180;4594;50.994;7.126;2024-01-16T00:32:59;99862.00;;;7.60
9119;BMP180;4594;50.994;7.126;2024-01-16T00:35:25;99887.00;;;7.60
9119;BMP180;4594;50.994;7.126;2024-01-16T00:37:51;99885.00;;;7.60
9119;BMP180;4594;50.994;7.126;2024-01-16T00:40:17;99877.00;;;7.60
9119;BMP180;4594;50.994;7.126;2024-01-16T00:42:43;99881.00;;;7.60
9119;BMP180;4594;50.994;7.126;2024-01-16T00:45:09;99891.00;;;7.60
9119;BMP180;4594;50.994;7.126;2024-01-16T00:47:34;99903.00;;;7.60
9119;BMP180;4594;50.994;7.126;2024-01-16T00:50:00;99886.00;;;7.60
9119;BMP180;4594;50.994;7.126;2024-01-16T00:52:27;99894.00;;;7.70
9119;BMP180;4594;50.994;7.126;2024-01-16T00:54:53;99874.00;;;7.70
9119;BMP180;4594;50.994;7.126;2024-01-16T00:57:19;99886.00;;;7.70
9119;BMP180;4594;50.994;7.126;2024-01-16T00:59:48;99902.00;;;7.70
9119;BMP180;4594;50.994;7.126;2024-01-16T01:02:15;99917.00;;;7.70
9119;BMP180;4594;50.994;7.126;2024-01-16T01:04:40;99910.00;;;7.70
9119;BMP180;4594;50.994;7.126;2024-01-16T01:07:07;99928.00;;;7.70
9119;BMP180;4594;50.994;7.126;2024-01-16T01:09:34;99905.00;;;7.70
9119;BMP180;4594;50.994;7.126;2024-01-16T01:11:59;99919.00;;;7.70
9119;BMP180;4594;50.994;7.126;2024-01-16T01:14:26;99930.00;;;7.60
9119;BMP180;4594;50.994;7.126;2024-01-16T01:16:54;99938.00;;;7.60
9119;BMP180;4594;50.994;7.126;2024-01-16T01:19:20;99916.00;;;7.60
9119;BMP180;4594;50.994;7.126;2024-01-16T01:21:46;99910.00;;;7.60
9119;BMP180;4594;50.994;7.126;2024-01-16T01:24:11;99936.00;;;7.60
9119;BMP180;4594;50.994;7.126;2024-01-16T01:26:37;99930.00;;;7.60
9119;BMP180;4594;50.994;7.126;2024-01-16T01:29:02;99932.00;;;7.60
9119;BMP180;4594;50.994;7.126;2024-01-16T01:31:28;99937.00;;;7.60
9119;BMP180;4594;50.994;7.126;2024-01-16T01:33:54;99939.00;;;7.60
9119;BMP180;4594;50.994;7.126;2024-01-16T01:36:19;99921.00;;;7.60
9119;BMP180;4594;50.994;7.126;2024-01-16T01:38:45;99926.00;;;7.60
9119;BMP180;4594;50.994;7.126;2024-01-16T01:41:11;99930.00;;;7.60
9119;BMP180;4594;50.994;7.126;2024-01-16T01:43:39;99956.00;;;7.60
9119;BMP180;4594;50.994;7.126;2024-01-16T01:48:47;99925.00;;;7.60
9119;BMP180;4594;50.994;7.126;2024-01-16T01:51:18;99943.00;;;7.60
9119;BMP180;4594;50.994;7.126;2024-01-16T01:53:45;99930.00;;;7.60
9119;BMP180;4594;50.994;7.126;2024-01-16T01:56:16;99950.00;;;7.60
9119;BMP180;4594;50.994;7.126;2024-01-16T01:58:53;99948.00;;;7.60
9119;BMP180;4594;50.994;7.126;2024-01-16T02:01:21;99944.00;;;7.60
9119;BMP180;4594;50.994;7.126;2024-01-16T02:03:49;99954.00;;;7.60
9119;BMP180;4594;50.994;7.126;2024-01-16T02:06:15;99927.00;;;7.60
9119;BMP180;4594;50.994;7.126;2024-01-16T02:08:42;99956.00;;;7.60
9119;BMP180;4594;50.994;7.126;2024-01-16T02:11:08;99936.00;;;7.60
9119;BMP180;4594;50.994;7.126;2024-01-16T02:13:35;99944.00;;;7.60
9119;BMP180;4594;50.994;7.126;2024-01-16T02:16:01;99945.00;;;7.60
9119;BMP180;4594;50.994;7.126;2024-01-16T02:18:29;99956.00;;;7.60
9119;BMP180;4594;50.994;7.126;2024-01-16T02:21:00;99964.00;;;7.60
9119;BMP180;4594;50.994;7.126;2024-01-16T02:23:29;99965.00;;;7.60
9119;BMP180;4594;50.994;7.126;2024-01-16T02:25:55;99952.00;;;7.60
9119;BMP180;4594;50.994;7.126;2024-01-16T02:28:21;99955.00;;;7.60
9119;BMP180;4594;50.994;7.126;2024-01-16T02:30:46;99939.00;;;7.60
9119;BMP180;4594;50.994;7.126;2024-01-16T02:33:12;99956.00;;;7.60
9119;BMP180;4594;50.994;7.126;2024-01-16T02:35:38;99945.00;;;7.50
9119;BMP180;4594;50.994;7.126;2024-01-16T02:38:04;99960.00;;;7.50
9119;BMP180;4594;50.994;7.126;2024-01-16T02:40:30;99959.00;;;7.60
9119;BMP180;4594;50.994;7.126;2024-01-16T02:42:56;99947.00;;;7.60
9119;BMP180;4594;50.994;7.126;2024-01-16T02:45:21;99926.00;;;7.60
9119;BMP180;4594;50.994;7.126;2024-01-16T02:47:48;99944.00;;;7.60
9119;BMP180;4594;50.994;7.126;2024-01-16T02:50:14;99918.00;;;7.60
9119;BMP180;4594;50.994;7.126;2024-01-16T02:52:39;99948.00;;;7.60
9119;BMP180;4594;50.994;7.126;2024-01-16T02:55:06;99954.00;;;7.60
9119;BMP180;4594;50.994;7.126;2024-01-16T02:57:32;99917.00;;;7.60
9119;BMP180;4594;50.994;7.126;2024-01-16T02:59:57;99951.00;;;7.60
9119;BMP180;4594;50.994;7.126;2024-01-16T03:02:23;99947.00;;;7.60
9119;BMP180;4594;50.994;7.126;2024-01-16T03:04:49;99946.00;;;7.50
9119;BMP180;4594;50.994;7.126;2024-01-16T03:07:16;99924.00;;;7.50
9119;BMP180;4594;50.994;7.126;2024-01-16T03:09:41;99927.00;;;7.50
9119;BMP180;4594;50.994;7.126;2024-01-16T03:12:07;99958.00;;;7.50
9119;BMP180;4594;50.994;7.126;2024-01-16T03:14:33;99930.00;;;7.50
9119;BMP180;4594;50.994;7.126;2024-01-16T03:17:03;99961.00;;;7.50
9119;BMP180;4594;50.994;7.126;2024-01-16T03:19:29;99925.00;;;7.50
9119;BMP180;4594;50.994;7.126;2024-01-16T03:21:55;99937.00;;;7.50
9119;BMP180;4594;50.994;7.126;2024-01-16T03:24:21;99924.00;;;7.50
9119;BMP180;4594;50.994;7.126;2024-01-16T03:26:47;99951.00;;;7.50
9119;BMP180;4594;50.994;7.126;2024-01-16T03:29:13;99934.00;;;7.50
9119;BMP180;4594;50.994;7.126;2024-01-16T03:31:39;99937.00;;;7.50
9119;BMP180;4594;50.994;7.126;2024-01-16T03:34:05;99938.00;;;7.40
9119;BMP180;4594;50.994;7.126;2024-01-16T03:36:30;99943.00;;;7.40
9119;BMP180;4594;50.994;7.126;2024-01-16T03:38:56;99940.00;;;7.40
9119;BMP180;4594;50.994;7.126;2024-01-16T03:41:22;99956.00;;;7.40
9119;BMP180;4594;50.994;7.126;2024-01-16T03:43:47;99923.00;;;7.40
9119;BMP180;4594;50.994;7.126;2024-01-16T03:46:13;99938.00;;;7.40
9119;BMP180;4594;50.994;7.126;2024-01-16T03:48:39;99913.00;;;7.40
9119;BMP180;4594;50.994;7.126;2024-01-16T03:51:05;99946.00;;;7.40
9119;BMP180;4594;50.994;7.126;2024-01-16T03:53:32;99957.00;;;7.40
9119;BMP180;4594;50.994;7.126;2024-01-16T03:55:58;99958.00;;;7.40
9119;BMP180;4594;50.994;7.126;2024-01-16T03:58:24;99935.00;;;7.40
9119;BMP180;4594;50.994;7.126;2024-01-16T04:00:49;99936.00;;;7.40
9119;BMP180;4594;50.994;7.126;2024-01-16T04:03:17;99914.00;;;7.40
9119;BMP180;4594;50.994;7.126;2024-01-16T04:05:42;99917.00;;;7.50
9119;BMP180;4594;50.994;7.126;2024-01-16T04:08:08;99922.00;;;7.40
9119;BMP180;4594;50.994;7.126;2024-01-16T04:10:34;99931.00;;;7.40
9119;BMP180;4594;50.994;7.126;2024-01-16T04:13:02;99931.00;;;7.40
9119;BMP180;4594;50.994;7.126;2024-01-16T04:15:27;99925.00;;;7.40
9119;BMP180;4594;50.994;7.126;2024-01-16T04:17:54;99935.00;;;7.40
9119;BMP180;4594;50.994;7.126;2024-01-16T04:20:20;99930.00;;;7.40
9119;BMP180;4594;50.994;7.126;2024-01-16T04:22:46;99933.00;;;7.40
9119;BMP180;4594;50.994;7.126;2024-01-16T04:25:12;99934.00;;;7.40
9119;BMP180;4594;50.994;7.126;2024-01-16T04:27:38;99949.00;;;7.50
9119;BMP180;4594;50.994;7.126;2024-01-16T04:30:05;99926.00;;;7.50
9119;BMP180;4594;50.994;7.126;2024-01-16T04:32:31;99947.00;;;7.50
9119;BMP180;4594;50.994;7.126;2024-01-16T04:34:56;99895.00;;;7.50
9119;BMP180;4594;50.994;7.126;2024-01-16T04:37:22;99924.00;;;7.50
9119;BMP180;4594;50.994;7.126;2024-01-16T04:39:48;99938.00;;;7.40
9119;BMP180;4594;50.994;7.126;2024-01-16T04:42:13;99934.00;;;7.50
9119;BMP180;4594;50.994;7.126;2024-01-16T04:44:39;99947.00;;;7.50
9119;BMP180;4594;50.994;7.126;2024-01-16T04:47:05;99932.00;;;7.50
9119;BMP180;4594;50.994;7.126;2024-01-16T04:49:31;99944.00;;;7.50
9119;BMP180;4594;50.994;7.126;2024-01-16T04:51:56;99935.00;;;7.50
9119;BMP180;4594;50.994;7.126;2024-01-16T04:54:22;99944.00;;;7.50
9119;BMP180;4594;50.994;7.126;2024-01-16T04:56:47;99934.00;;;7.50
9119;BMP180;4594;50.994;7.126;2024-01-16T04:59:13;99952.00;;;7.50
9119;BMP180;4594;50.994;7.126;2024-01-16T05:01:39;99935.00;;;7.50
9119;BMP180;4594;50.994;7.126;2024-01-16T05:04:05;99942.00;;;7.50
9119;BMP180;4594;50.994;7.126;2024-01-16T05:06:30;99915.00;;;7.50
9119;BMP180;4594;50.994;7.126;2024-01-16T05:08:56;99930.00;;;7.50
9119;BMP180;4594;50.994;7.126;2024-01-16T05:11:22;99934.00;;;7.50
9119;BMP180;4594;50.994;7.126;2024-01-16T05:13:47;99915.00;;;7.50
9119;BMP180;4594;50.994;7.126;2024-01-16T05:16:13;99938.00;;;7.50
9119;BMP180;4594;50.994;7.126;2024-01-16T05:18:42;99921.00;;;7.50
9119;BMP180;4594;50.994;7.126;2024-01-16T05:21:08;99923.00;;;7.50
9119;BMP180;4594;50.994;7.126;2024-01-16T05:23:34;99934.00;;;7.50
9119;BMP180;4594;50.994;7.126;2024-01-16T05:26:00;99938.00;;;7.40
9119;BMP180;4594;50.994;7.126;2024-01-16T05:28:25;99922.00;;;7.40
9119;BMP180;4594;50.994;7.126;2024-01-16T05:30:51;99915.00;;;7.40
9119;BMP180;4594;50.994;7.126;2024-01-16T05:33:17;99936.00;;;7.40
9119;BMP180;4594;50.994;7.126;2024-01-16T05:35:42;99934.00;;;7.30
9119;BMP180;4594;50.994;7.126;2024-01-16T05:38:08;99931.00;;;7.30
9119;BMP180;4594;50.994;7.126;2024-01-16T05:40:33;99924.00;;;7.30
9119;BMP180;4594;50.994;7.126;2024-01-16T05:42:59;99932.00;;;7.20
9119;BMP180;4594;50.994;7.126;2024-01-16T05:45:25;99920.00;;;7.20
9119;BMP180;4594;50.994;7.126;2024-01-16T05:47:50;99936.00;;;7.10
9119;BMP180;4594;50.994;7.126;2024-01-16T05:50:16;99917.00;;;7.10
9119;BMP180;4594;50.994;7.126;2024-01-16T05:52:44;99928.00;;;7.10
9119;BMP180;4594;50.994;7.126;2024-01-16T05:55:10;99904.00;;;7.10
9119;BMP180;4594;50.994;7.126;2024-01-16T05:57:36;99914.00;;;7.10
9119;BMP180;4594;50.994;7.126;2024-01-16T06:00:04;99911.00;;;7.10
9119;BMP180;4594;50.994;7.126;2024-01-16T06:02:31;99903.00;;;7.00
9119;BMP180;4594;50.994;7.126;2024-01-16T06:04:57;99897.00;;;7.10
9119;BMP180;4594;50.994;7.126;2024-01-16T06:07:22;99892.00;;;7.10
9119;BMP180;4594;50.994;7.126;2024-01-16T06:09:48;99900.00;;;7.10
9119;BMP180;4594;50.994;7.126;2024-01-16T06:12:14;99860.00;;;7.10
9119;BMP180;4594;50.994;7.126;2024-01-16T06:14:40;99900.00;;;7.20
9119;BMP180;4594;50.994;7.126;2024-01-16T06:17:05;99910.00;;;7.20
9119;BMP180;4594;50.994;7.126;2024-01-16T06:19:32;99899.00;;;7.20
9119;BMP180;4594;50.994;7.126;2024-01-16T06:21:59;99911.00;;;7.30
9119;BMP180;4594;50.994;7.126;2024-01-16T06:24:26;99907.00;;;7.30
9119;BMP180;4594;50.994;7.126;2024-01-16T06:26:52;99899.00;;;7.30
9119;BMP180;4594;50.994;7.126;2024-01-16T06:29:17;99924.00;;;7.30
9119;BMP180;4594;50.994;7.126;2024-01-16T06:31:43;99912.00;;;7.30
9119;BMP180;4594;50.994;7.126;2024-01-16T06:34:09;99918.00;;;7.40
9119;BMP180;4594;50.994;7.126;2024-01-16T06:36:34;99911.00;;;7.40
9119;BMP180;4594;50.994;7.126;2024-01-16T06:39:00;99904.00;;;7.40
9119;BMP180;4594;50.994;7.126;2024-01-16T06:41:26;99903.00;;;7.40
9119;BMP180;4594;50.994;7.126;2024-01-16T06:43:51;99913.00;;;7.40
9119;BMP180;4594;50.994;7.126;2024-01-16T06:46:17;99913.00;;;7.40
9119;BMP180;4594;50.994;7.126;2024-01-16T06:48:43;99912.00;;;7.40
9119;BMP180;4594;50.994;7.126;2024-01-16T06:51:08;99912.00;;;7.50
9119;BMP180;4594;50.994;7.126;2024-01-16T06:53:36;99907.00;;;7.50
9119;BMP180;4594;50.994;7.126;2024-01-16T06:56:01;99907.00;;;7.50
9119;BMP180;4594;50.994;7.126;2024-01-16T06:58:28;99914.00;;;7.50
9119;BMP180;4594;50.994;7.126;2024-01-16T07:00:54;99937.00;;;7.50
9119;BMP180;4594;50.994;7.126;2024-01-16T07:03:21;99940.00;;;7.50
9119;BMP180;4594;50.994;7.126;2024-01-16T07:05:46;99948.00;;;7.60
9119;BMP180;4594;50.994;7.126;2024-01-16T07:08:12;99919.00;;;7.60
9119;BMP180;4594;50.994;7.126;2024-01-16T07:10:38;99937.00;;;7.60
9119;BMP180;4594;50.994;7.126;2024-01-16T07:13:03;99921.00;;;7.60
9119;BMP180;4594;50.994;7.126;2024-01-16T07:15:29;99915.00;;;7.60
9119;BMP180;4594;50.994;7.126;2024-01-16T07:17:55;99943.00;;;7.60
9119;BMP180;4594;50.994;7.126;2024-01-16T07:20:20;99937.00;;;7.60
9119;BMP180;4594;50.994;7.126;2024-01-16T07:22:46;99939.00;;;7.70
9119;BMP180;4594;50.994;7.126;2024-01-16T07:25:12;99960.00;;;7.70
9119;BMP180;4594;50.994;7.126;2024-01-16T07:27:39;99951.00;;;7.70
9119;BMP180;4594;50.994;7.126;2024-01-16T07:30:06;99937.00;;;7.70
9119;BMP180;4594;50.994;7.126;2024-01-16T07:32:32;99969.00;;;7.70
9119;BMP180;4594;50.994;7.126;2024-01-16T07:34:58;99955.00;;;7.70
9119;BMP180;4594;50.994;7.126;2024-01-16T07:37:24;99935.00;;;7.70
9119;BMP180;4594;50.994;7.126;2024-01-16T07:39:49;99966.00;;;7.60
9119;BMP180;4594;50.994;7.126;2024-01-16T07:42:15;99954.00;;;7.70
9119;BMP180;4594;50.994;7.126;2024-01-16T07:44:41;99966.00;;;7.70
9119;BMP180;4594;50.994;7.126;2024-01-16T07:47:06;99928.00;;;7.70
9119;BMP180;4594;50.994;7.126;2024-01-16T07:49:33;99953.00;;;7.70
9119;BMP180;4594;50.994;7.126;2024-01-16T07:52:00;99938.00;;;7.70
9119;BMP180;4594;50.994;7.126;2024-01-16T07:54:26;99969.00;;;7.70
9119;BMP180;4594;50.994;7.126;2024-01-16T07:56:52;99961.00;;;7.70
9119;BMP180;4594;50.994;7.126;2024-01-16T07:59:17;99971.00;;;7.70
9119;BMP180;4594;50.994;7.126;2024-01-16T08:01:43;99968.00;;;7.70
9119;BMP180;4594;50.994;7.126;2024-01-16T08:04:09;99977.00;;;7.70
9119;BMP180;4594;50.994;7.126;2024-01-16T08:06:35;99970.00;;;7.70
9119;BMP180;4594;50.994;7.126;2024-01-16T08:09:01;99964.00;;;7.70
9119;BMP180;4594;50.994;7.126;2024-01-16T08:11:27;99972.00;;;7.70
9119;BMP180;4594;50.994;7.126;2024-01-16T08:13:53;99977.00;;;7.70
9119;BMP180;4594;50.994;7.126;2024-01-16T08:16:19;99971.00;;;7.70
9119;BMP180;4594;50.994;7.126;2024-01-16T08:18:44;99975.00;;;7.80
9119;BMP180;4594;50.994;7.126;2024-01-16T08:21:10;99973.00;;;7.80
9119;BMP180;4594;50.994;7.126;2024-01-16T08:23:36;99970.00;;;7.80
9119;BMP180;4594;50.994;7.126;2024-01-16T08:26:02;99977.00;;;7.80
9119;BMP180;4594;50.994;7.126;2024-01-16T08:28:28;99981.00;;;7.90
9119;BMP180;4594;50.994;7.126;2024-01-16T08:30:54;99987.00;;;7.90
9119;BMP180;4594;50.994;7.126;2024-01-16T08:33:19;99971.00;;;7.90
9119;BMP180;4594;50.994;7.126;2024-01-16T08:35:45;99998.00;;;8.00
9119;BMP180;4594;50.994;7.126;2024-01-16T08:38:11;99986.00;;;8.00
9119;BMP180;4594;50.994;7.126;2024-01-16T08:40:36;99993.00;;;8.00
9119;BMP180;4594;50.994;7.126;2024-01-16T08:43:02;99995.00;;;8.10
9119;BMP180;4594;50.994;7.126;2024-01-16T08:45:29;100005.00;;;8.10
9119;BMP180;4594;50.994;7.126;2024-01-16T08:47:55;100001.00;;;8.10
9119;BMP180;4594;50.994;7.126;2024-01-16T08:50:21;99994.00;;;8.20
9119;BMP180;4594;50.994;7.126;2024-01-16T08:52:46;99998.00;;;8.20
9119;BMP180;4594;50.994;7.126;2024-01-16T08:55:12;99997.00;;;8.30
9119;BMP180;4594;50.994;7.126;2024-01-16T08:57:38;100004.00;;;8.30
9119;BMP180;4594;50.994;7.126;2024-01-16T09:00:05;100000.00;;;8.30
9119;BMP180;4594;50.994;7.126;2024-01-16T09:02:32;100003.00;;;8.40
9119;BMP180;4594;50.994;7.126;2024-01-16T09:04:58;100004.00;;;8.40
9119;BMP180;4594;50.994;7.126;2024-01-16T09:07:27;99991.00;;;8.40
9119;BMP180;4594;50.994;7.126;2024-01-16T09:09:53;99998.00;;;8.40
9119;BMP180;4594;50.994;7.126;2024-01-16T09:12:19;99998.00;;;8.50
9119;BMP180;4594;50.994;7.126;2024-01-16T09:14:45;100004.00;;;8.50
9119;BMP180;4594;50.994;7.126;2024-01-16T09:17:11;100007.00;;;8.60
9119;BMP180;4594;50.994;7.126;2024-01-16T09:19:37;100010.00;;;8.70
9119;BMP180;4594;50.994;7.126;2024-01-16T09:22:03;100017.00;;;8.90
9119;BMP180;4594;50.994;7.126;2024-01-16T09:24:29;100012.00;;;8.90
9119;BMP180;4594;50.994;7.126;2024-01-16T09:26:55;100015.00;;;9.00
9119;BMP180;4594;50.994;7.126;2024-01-16T09:29:21;100007.00;;;9.10
9119;BMP180;4594;50.994;7.126;2024-01-16T09:31:50;100003.00;;;9.10
9119;BMP180;4594;50.994;7.126;2024-01-16T09:34:17;100006.00;;;9.20
9119;BMP180;4594;50.994;7.126;2024-01-16T09:36:43;100015.00;;;9.30
9119;BMP180;4594;50.994;7.126;2024-01-16T09:39:08;100009.00;;;9.30
9119;BMP180;4594;50.994;7.126;2024-01-16T09:41:37;100014.00;;;9.30
9119;BMP180;4594;50.994;7.126;2024-01-16T09:44:03;100015.00;;;9.40
9119;BMP180;4594;50.994;7.126;2024-01-16T09:46:31;100013.00;;;9.40
9119;BMP180;4594;50.994;7.126;2024-01-16T09:49:00;100024.00;;;9.40
9119;BMP180;4594;50.994;7.126;2024-01-16T09:51:25;100012.00;;;9.40
9119;BMP180;4594;50.994;7.126;2024-01-16T09:53:52;100013.00;;;9.50
9119;BMP180;4594;50.994;7.126;2024-01-16T09:56:22;100020.00;;;9.50
9119;BMP180;4594;50.994;7.126;2024-01-16T09:58:55;100017.00;;;9.60
9119;BMP180;4594;50.994;7.126;2024-01-16T10:01:26;100013.00;;;9.70
9119;BMP180;4594;50.994;7.126;2024-01-16T10:03:52;100004.00;;;9.70
9119;BMP180;4594;50.994;7.126;2024-01-16T10:06:20;100011.00;;;9.80
9119;BMP180;4594;50.994;7.126;2024-01-16T10:08:46;100009.00;;;9.80
9119;BMP180;4594;50.994;7.126;2024-01-16T10:11:12;100009.00;;;9.90
9119;BMP180;4594;50.994;7.126;2024-01-16T10:13:38;100007.00;;;9.90
9119;BMP180;4594;50.994;7.126;2024-01-16T10:16:04;99996.00;;;9.90
9119;BMP180;4594;50.994;7.126;2024-01-16T10:18:30;99997.00;;;9.90
9119;BMP180;4594;50.994;7.126;2024-01-16T10:20:56;99997.00;;;9.90
9119;BMP180;4594;50.994;7.126;2024-01-16T10:23:27;100001.00;;;9.90
9119;BMP180;4594;50.994;7.126;2024-01-16T10:26:21;99995.00;;;9.90
9119;BMP180;4594;50.994;7.126;2024-01-16T10:28:46;99990.00;;;9.90
9119;BMP180;4594;50.994;7.126;2024-01-16T10:31:13;99979.00;;;10.00
9119;BMP180;4594;50.994;7.126;2024-01-16T10:33:42;99985.00;;;10.00
9119;BMP180;4594;50.994;7.126;2024-01-16T10:36:12;99971.00;;;10.00
9119;BMP180;4594;50.994;7.126;2024-01-16T10:38:39;99973.00;;;10.00
9119;BMP180;4594;50.994;7.126;2024-01-16T10:43:37;99964.00;;;10.10
9119;BMP180;4594;50.994;7.126;2024-01-16T10:46:18;99967.00;;;10.10
9119;BMP180;4594;50.994;7.126;2024-01-16T10:49:03;99957.00;;;10.10
9119;BMP180;4594;50.994;7.126;2024-01-16T10:51:30;99959.00;;;10.10
9119;BMP180;4594;50.994;7.126;2024-01-16T10:54:03;99959.00;;;10.10
9119;BMP180;4594;50.994;7.126;2024-01-16T10:56:34;99950.00;;;10.20
9119;BMP180;4594;50.994;7.126;2024-01-16T10:59:24;99960.00;;;10.30
9119;BMP180;4594;50.994;7.126;2024-01-16T11:01:56;99951.00;;;10.40
9119;BMP180;4594;50.994;7.126;2024-01-16T11:04:24;99945.00;;;10.60
9119;BMP180;4594;50.994;7.126;2024-01-16T11:06:54;99946.00;;;10.70
9119;BMP180;4594;50.994;7.126;2024-01-16T11:09:20;99951.00;;;10.80
9119;BMP180;4594;50.994;7.126;2024-01-16T11:11:47;99951.00;;;10.90
9119;BMP180;4594;50.994;7.126;2024-01-16T11:14:16;99939.00;;;11.00
9119;BMP180;4594;50.994;7.126;2024-01-16T11:16:43;99928.00;;;11.10
9119;BMP180;4594;50.994;7.126;2024-01-16T11:19:12;99932.00;;;11.20
9119;BMP180;4594;50.994;7.126;2024-01-16T11:21:39;99934.00;;;11.30
9119;BMP180;4594;50.994;7.126;2024-01-16T11:24:06;99942.00;;;11.50
9119;BMP180;4594;50.994;7.126;2024-01-16T11:26:35;99939.00;;;11.60
9119;BMP180;4594;50.994;7.126;2024-01-16T11:31:53;99939.00;;;11.80
9119;BMP180;4594;50.994;7.126;2024-01-16T11:34:52;99938.00;;;11.80
9119;BMP180;4594;50.994;7.126;2024-01-16T11:37:30;99950.00;;;11.80
9119;BMP180;4594;50.994;7.126;2024-01-16T11:40:21;99956.00;;;11.70
9119;BMP180;4594;50.994;7.126;2024-01-16T11:42:51;99953.00;;;11.70
9119;BMP180;4594;50.994;7.126;2024-01-16T11:48:09;99949.00;;;11.60
9119;BMP180;4594;50.994;7.126;2024-01-16T11:50:35;99951.00;;;11.60
9119;BMP180;4594;50.994;7.126;2024-01-16T11:53:01;99953.00;;;11.60
9119;BMP180;4594;50.994;7.126;2024-01-16T11:55:32;99939.00;;;11.60
9119;BMP180;4594;50.994;7.126;2024-01-16T12:01:05;99928.00;;;11.50
9119;BMP180;4594;50.994;7.126;2024-01-16T12:03:31;99922.00;;;11.50
9119;BMP180;4594;50.994;7.126;2024-01-16T12:05:58;99909.00;;;11.40
9119;BMP180;4594;50.994;7.126;2024-01-16T12:08:25;99917.00;;;11.30
9119;BMP180;4594;50.994;7.126;2024-01-16T12:10:51;99915.00;;;11.20
9119;BMP180;4594;50.994;7.126;2024-01-16T12:13:18;99921.00;;;11.10
9119;BMP180;4594;50.994;7.126;2024-01-16T12:15:44;99913.00;;;11.00
9119;BMP180;4594;50.994;7.126;2024-01-16T12:18:09;99914.00;;;11.00
9119;BMP180;4594;50.994;7.126;2024-01-16T12:20:36;99909.00;;;11.00
9119;BMP180;4594;50.994;7.126;2024-01-16T12:23:04;99897.00;;;10.90
9119;BMP180;4594;50.994;7.126;2024-01-16T12:25:33;99890.00;;;10.90
9119;BMP180;4594;50.994;7.126;2024-01-16T12:28:08;99891.00;;;10.80
9119;BMP180;4594;50.994;7.126;2024-01-16T12:30:37;99893.00;;;10.80
9119;BMP180;4594;50.994;7.126;2024-01-16T12:35:38;99877.00;;;10.60
9119;BMP180;4594;50.994;7.126;2024-01-16T12:38:06;99880.00;;;10.60
9119;BMP180;4594;50.994;7.126;2024-01-16T12:40:40;99881.00;;;10.50
9119;BMP180;4594;50.994;7.126;2024-01-16T12:43:08;99871.00;;;10.40
9119;BMP180;4594;50.994;7.126;2024-01-16T12:45:37;99874.00;;;10.30
9119;BMP180;4594;50.994;7.126;2024-01-16T12:48:04;99865.00;;;10.30
9119;BMP180;4594;50.994;7.126;2024-01-16T12:50:32;99870.00;;;10.20
9119;BMP180;4594;50.994;7.126;2024-01-16T12:53:05;99863.00;;;10.20
9119;BMP180;4594;50.994;7.126;2024-01-16T12:55:33;99856.00;;;10.20
9119;BMP180;4594;50.994;7.126;2024-01-16T12:58:36;99855.00;;;10.10
9119;BMP180;4594;50.994;7.126;2024-01-16T13:01:25;99846.00;;;10.10
9119;BMP180;4594;50.994;7.126;2024-01-16T13:03:52;99848.00;;;10.10
9119;BMP180;4594;50.994;7.126;2024-01-16T13:06:21;99838.00;;;10.10
9119;BMP180;4594;50.994;7.126;2024-01-16T13:08:47;99837.00;;;10.00
9119;BMP180;4594;50.994;7.126;2024-01-16T13:11:13;99837.00;;;10.00
9119;BMP180;4594;50.994;7.126;2024-01-16T13:13:48;99832.00;;;10.00
9119;BMP180;4594;50.994;7.126;2024-01-16T13:16:16;99837.00;;;9.90
9119;BMP180;4594;50.994;7.126;2024-01-16T13:18:41;99834.00;;;9.90
9119;BMP180;4594;50.994;7.126;2024-01-16T13:21:07;99839.00;;;9.90
9119;BMP180;4594;50.994;7.126;2024-01-16T13:23:33;99846.00;;;9.90
9119;BMP180;4594;50.994;7.126;2024-01-16T13:26:00;99845.00;;;9.90
9119;BMP180;4594;50.994;7.126;2024-01-16T13:28:29;99834.00;;;9.90
9119;BMP180;4594;50.994;7.126;2024-01-16T13:30:55;99834.00;;;9.80
9119;BMP180;4594;50.994;7.126;2024-01-16T13:33:24;99832.00;;;9.80
9119;BMP180;4594;50.994;7.126;2024-01-16T13:35:53;99830.00;;;9.80
9119;BMP180;4594;50.994;7.126;2024-01-16T13:38:20;99832.00;;;9.70
9119;BMP180;4594;50.994;7.126;2024-01-16T13:40:47;99821.00;;;9.60
9119;BMP180;4594;50.994;7.126;2024-01-16T13:43:13;99825.00;;;9.60
9119;BMP180;4594;50.994;7.126;2024-01-16T13:45:39;99825.00;;;9.60
9119;BMP180;4594;50.994;7.126;2024-01-16T13:48:06;99823.00;;;9.50
9119;BMP180;4594;50.994;7.126;2024-01-16T13:50:32;99828.00;;;9.50
9119;BMP180;4594;50.994;7.126;2024-01-16T13:53:02;99818.00;;;9.50
9119;BMP180;4594;50.994;7.126;2024-01-16T13:55:28;99830.00;;;9.50
9119;BMP180;4594;50.994;7.126;2024-01-16T13:57:54;99803.00;;;9.50
9119;BMP180;4594;50.994;7.126;2024-01-16T14:00:20;99804.00;;;9.40
9119;BMP180;4594;50.994;7.126;2024-01-16T14:02:48;99804.00;;;9.30
9119;BMP180;4594;50.994;7.126;2024-01-16T14:05:18;99804.00;;;9.30
9119;BMP180;4594;50.994;7.126;2024-01-16T14:07:50;99812.00;;;9.20
9119;BMP180;4594;50.994;7.126;2024-01-16T14:10:18;99798.00;;;9.10
9119;BMP180;4594;50.994;7.126;2024-01-16T14:12:47;99805.00;;;9.00
9119;BMP180;4594;50.994;7.126;2024-01-16T14:15:15;99809.00;;;8.90
9119;BMP180;4594;50.994;7.126;2024-01-16T14:17:50;99795.00;;;8.80
9119;BMP180;4594;50.994;7.126;2024-01-16T14:20:18;99800.00;;;8.70
9119;BMP180;4594;50.994;7.126;2024-01-16T14:22:48;99792.00;;;8.60
9119;BMP180;4594;50.994;7.126;2024-01-16T14:25:14;99786.00;;;8.50
9119;BMP180;4594;50.994;7.126;2024-01-16T14:27:42;99795.00;;;8.40
9119;BMP180;4594;50.994;7.126;2024-01-16T14:30:14;99800.00;;;8.30
9119;BMP180;4594;50.994;7.126;2024-01-16T14:32:43;99787.00;;;8.20
9119;BMP180;4594;50.994;7.126;2024-01-16T14:35:14;99799.00;;;8.10
9119;BMP180;4594;50.994;7.126;2024-01-16T14:37:42;99791.00;;;8.10
9119;BMP180;4594;50.994;7.126;2024-01-16T14:40:08;99800.00;;;8.00
9119;BMP180;4594;50.994;7.126;2024-01-16T14:42:49;99788.00;;;7.90
9119;BMP180;4594;50.994;7.126;2024-01-16T14:45:23;99794.00;;;7.80
9119;BMP180;4594;50.994;7.126;2024-01-16T14:47:50;99803.00;;;7.70
9119;BMP180;4594;50.994;7.126;2024-01-16T14:50:17;99799.00;;;7.60
9119;BMP180;4594;50.994;7.126;2024-01-16T14:52:48;99787.00;;;7.50
9119;BMP180;4594;50.994;7.126;2024-01-16T14:55:14;99792.00;;;7.50
9119;BMP180;4594;50.994;7.126;2024-01-16T14:57:41;99784.00;;;7.40
9119;BMP180;4594;50.994;7.126;2024-01-16T15:00:14;99782.00;;;7.30